createdAt,value
2022-12-25T00:01:18.146Z,4.50
2022-12-25T00:03:45.399Z,5.10
2022-12-25T00:06:12.431Z,4.65
2022-12-25T00:08:43.792Z,4.35
2022-12-25T00:11:16.550Z,4.18
2022-12-25T00:13:44.022Z,3.25
2022-12-25T00:16:16.956Z,2.97
2022-12-25T00:18:43.889Z,2.90
2022-12-25T00:21:11.593Z,3.03
2022-12-25T00:23:38.910Z,2.60
2022-12-25T00:26:09.140Z,3.10
2022-12-25T00:28:36.328Z,3.15
2022-12-25T00:31:12.160Z,2.83
2022-12-25T00:33:40.699Z,3.28
2022-12-25T00:36:08.940Z,2.85
2022-12-25T00:38:37.916Z,3.13
2022-12-25T00:41:11.099Z,2.47
2022-12-25T00:43:39.868Z,3.75
2022-12-25T00:46:08.623Z,3.67
2022-12-25T00:48:36.173Z,2.92
2022-12-25T00:51:06.685Z,3.55
2022-12-25T00:53:33.926Z,3.45
2022-12-25T00:56:06.238Z,3.40
2022-12-25T00:58:35.232Z,3.05
2022-12-25T01:01:04.829Z,3.15
2022-12-25T01:03:31.704Z,2.90
2022-12-25T01:06:02.001Z,3.15
2022-12-25T01:08:35.142Z,3.08
2022-12-25T01:11:07.317Z,3.20
2022-12-25T01:13:36.745Z,2.95
2022-12-25T01:16:08.293Z,2.95
2022-12-25T01:18:35.461Z,2.75
2022-12-25T01:21:10.239Z,2.90
2022-12-25T01:23:38.080Z,2.42
2022-12-25T01:26:06.001Z,2.60
2022-12-25T01:28:32.934Z,2.33
2022-12-25T01:30:59.797Z,3.20
2022-12-25T01:33:28.275Z,3.00
2022-12-25T01:35:55.038Z,2.75
2022-12-25T01:38:22.067Z,3.42
2022-12-25T01:40:48.882Z,3.60
2022-12-25T01:43:31.352Z,3.70
2022-12-25T01:46:00.492Z,3.90
2022-12-25T01:48:37.783Z,3.70
2022-12-25T01:51:22.026Z,3.80
2022-12-25T01:53:48.967Z,4.97
2022-12-25T01:56:21.961Z,4.30
2022-12-25T01:58:51.392Z,3.60
2022-12-25T02:01:18.435Z,4.57
2022-12-25T02:03:45.259Z,4.55
2022-12-25T02:06:12.191Z,3.92
2022-12-25T02:08:40.525Z,4.25
2022-12-25T02:11:29.191Z,3.70
2022-12-25T02:13:56.319Z,4.80
2022-12-25T02:16:30.209Z,4.43
2022-12-25T02:19:02.948Z,3.53
2022-12-25T02:21:39.069Z,4.20
2022-12-25T02:24:17.995Z,3.90
2022-12-25T02:27:07.297Z,3.90
2022-12-25T02:29:42.521Z,3.35
2022-12-25T02:32:21.693Z,3.67
2022-12-25T02:35:15.447Z,3.50
2022-12-25T02:37:53.336Z,3.67
2022-12-25T02:40:27.755Z,3.17
2022-12-25T02:43:13.193Z,4.07
2022-12-25T02:46:04.587Z,3.40
2022-12-25T02:48:59.066Z,3.13
2022-12-25T02:51:48.287Z,2.92
2022-12-25T02:54:40.511Z,2.42
2022-12-25T02:57:30.198Z,2.45
2022-12-25T03:00:20.399Z,2.60
2022-12-25T03:03:08.043Z,2.75
2022-12-25T03:05:58.473Z,2.85
2022-12-25T03:08:40.326Z,2.38
2022-12-25T03:11:29.178Z,3.22
2022-12-25T03:14:20.471Z,2.25
2022-12-25T03:16:50.708Z,2.63
2022-12-25T03:19:37.431Z,2.90
2022-12-25T03:22:25.222Z,3.10
2022-12-25T03:25:10.779Z,3.13
2022-12-25T03:27:40.719Z,2.95
2022-12-25T03:30:40.857Z,2.40
2022-12-25T03:33:43.982Z,2.13
2022-12-25T03:36:21.841Z,2.30
2022-12-25T03:39:21.556Z,2.35
2022-12-25T03:42:11.765Z,2.58
2022-12-25T03:44:53.752Z,2.80
2022-12-25T03:47:35.251Z,3.38
2022-12-25T03:50:54.566Z,3.38
2022-12-25T03:53:50.216Z,2.88
2022-12-25T03:56:37.477Z,2.70
2022-12-25T03:59:24.107Z,3.20
2022-12-25T04:02:10.775Z,2.53
2022-12-25T04:04:57.091Z,2.90
2022-12-25T04:07:42.547Z,2.95
2022-12-25T04:10:29.115Z,3.70
2022-12-25T04:13:14.801Z,2.92
2022-12-25T04:16:00.303Z,4.00
2022-12-25T04:18:46.214Z,4.05
2022-12-25T04:21:31.471Z,3.85
2022-12-25T04:24:17.066Z,4.18
2022-12-25T04:27:02.584Z,4.22
2022-12-25T04:29:48.019Z,4.25
2022-12-25T04:32:33.637Z,4.07
2022-12-25T04:35:19.209Z,2.97
2022-12-25T04:37:46.066Z,3.05
2022-12-25T04:40:13.219Z,2.97
2022-12-25T04:42:40.121Z,3.58
2022-12-25T04:45:07.430Z,3.55
2022-12-25T04:47:34.234Z,3.55
2022-12-25T04:50:01.036Z,3.53
2022-12-25T04:52:28.055Z,3.65
2022-12-25T04:55:06.576Z,4.32
2022-12-25T04:57:36.772Z,3.80
2022-12-25T05:00:05.584Z,3.40
2022-12-25T05:02:32.516Z,3.65
2022-12-25T05:04:59.678Z,3.55
2022-12-25T05:07:26.442Z,3.53
2022-12-25T05:09:53.328Z,3.20
2022-12-25T05:12:20.260Z,2.63
2022-12-25T05:14:47.200Z,2.63
2022-12-25T05:17:14.007Z,2.90
2022-12-25T05:19:40.880Z,3.53
2022-12-25T05:22:07.627Z,3.17
2022-12-25T05:24:34.534Z,3.40
2022-12-25T05:27:01.330Z,3.22
2022-12-25T05:29:28.302Z,2.83
2022-12-25T05:31:55.042Z,3.00
2022-12-25T05:34:22.074Z,2.60
2022-12-25T05:36:56.643Z,2.30
2022-12-25T05:39:26.092Z,2.20
2022-12-25T05:41:53.096Z,2.20
2022-12-25T05:44:20.255Z,2.20
2022-12-25T05:46:47.409Z,2.15
2022-12-25T05:49:14.520Z,2.33
2022-12-25T05:51:41.641Z,2.83
2022-12-25T05:54:08.549Z,2.40
2022-12-25T05:56:37.891Z,3.00
2022-12-25T05:59:04.756Z,2.88
2022-12-25T06:01:31.676Z,2.50
2022-12-25T06:04:02.151Z,2.80
2022-12-25T06:06:31.452Z,2.47
2022-12-25T06:08:58.274Z,3.65
2022-12-25T06:11:25.182Z,3.25
2022-12-25T06:13:52.504Z,3.47
2022-12-25T06:16:20.358Z,3.20
2022-12-25T06:18:52.180Z,3.70
2022-12-25T06:21:19.196Z,2.85
2022-12-25T06:23:46.159Z,2.47
2022-12-25T06:26:16.144Z,2.60
2022-12-25T06:28:43.236Z,2.67
2022-12-25T06:31:19.521Z,3.42
2022-12-25T06:33:46.813Z,2.70
2022-12-25T06:36:19.904Z,3.00
2022-12-25T06:38:46.670Z,3.88
2022-12-25T06:41:18.888Z,3.45
2022-12-25T06:43:54.651Z,2.80
2022-12-25T06:46:25.329Z,2.30
2022-12-25T06:48:52.490Z,3.00
2022-12-25T06:51:25.556Z,2.72
2022-12-25T06:53:54.302Z,3.33
2022-12-25T06:56:24.319Z,2.75
2022-12-25T06:58:54.685Z,3.45
2022-12-25T07:01:25.602Z,3.13
2022-12-25T07:03:56.692Z,2.90
2022-12-25T07:08:50.209Z,2.88
2022-12-25T07:11:17.605Z,5.18
2022-12-25T07:13:44.588Z,6.55
2022-12-25T07:16:12.766Z,7.30
2022-12-25T07:18:40.579Z,7.18
2022-12-25T07:21:13.314Z,4.82
2022-12-25T07:23:40.386Z,3.92
2022-12-25T07:26:09.313Z,3.03
2022-12-25T07:28:36.112Z,3.45
2022-12-25T07:31:13.132Z,3.13
2022-12-25T07:33:40.170Z,3.15
2022-12-25T07:36:07.845Z,3.80
2022-12-25T07:38:39.802Z,3.03
2022-12-25T07:41:11.028Z,4.43
2022-12-25T07:43:38.917Z,7.55
2022-12-25T07:46:06.072Z,6.82
2022-12-25T07:48:33.562Z,11.57
2022-12-25T07:51:02.777Z,13.77
2022-12-25T07:53:30.010Z,10.75
2022-12-25T07:55:59.032Z,10.65
2022-12-25T07:58:26.055Z,10.38
2022-12-25T08:00:53.076Z,12.52
2022-12-25T08:03:20.193Z,9.50
2022-12-25T08:05:47.187Z,7.70
2022-12-25T08:08:14.117Z,12.93
2022-12-25T08:10:45.604Z,10.35
2022-12-25T08:13:14.780Z,8.52
2022-12-25T08:15:42.217Z,6.45
2022-12-25T08:18:09.449Z,5.25
2022-12-25T08:20:36.613Z,5.28
2022-12-25T08:23:04.488Z,4.22
2022-12-25T08:25:31.859Z,4.63
2022-12-25T08:28:01.183Z,6.40
2022-12-25T08:30:28.524Z,6.78
2022-12-25T08:33:02.974Z,7.60
2022-12-25T08:35:36.354Z,7.78
2022-12-25T08:38:03.236Z,7.93
2022-12-25T08:40:33.125Z,7.20
2022-12-25T08:43:00.345Z,5.72
2022-12-25T08:45:32.754Z,4.75
2022-12-25T08:48:01.821Z,3.72
2022-12-25T08:50:31.588Z,5.95
2022-12-25T08:52:58.449Z,4.63
2022-12-25T08:55:28.063Z,4.20
2022-12-25T08:57:54.905Z,5.72
2022-12-25T09:00:21.807Z,6.75
2022-12-25T09:02:48.866Z,6.18
2022-12-25T09:05:15.803Z,7.20
2022-12-25T09:07:42.681Z,11.00
2022-12-25T09:10:09.994Z,12.65
2022-12-25T09:12:37.032Z,12.38
2022-12-25T09:15:06.736Z,10.13
2022-12-25T09:17:34.099Z,11.68
2022-12-25T09:20:00.976Z,9.93
2022-12-25T09:22:27.834Z,7.30
2022-12-25T09:24:54.602Z,6.25
2022-12-25T09:27:22.687Z,7.55
2022-12-25T09:29:49.930Z,6.03
2022-12-25T09:32:17.238Z,5.82
2022-12-25T09:34:44.329Z,6.25
2022-12-25T09:37:11.270Z,7.90
2022-12-25T09:39:43.882Z,13.27
2022-12-25T09:42:20.812Z,12.27
2022-12-25T09:45:00.189Z,10.65
2022-12-25T09:47:33.069Z,9.40
2022-12-25T09:50:11.472Z,7.97
2022-12-25T09:53:07.700Z,8.27
2022-12-25T09:55:41.271Z,8.88
2022-12-25T09:58:13.436Z,6.72
2022-12-25T10:00:50.814Z,6.00
2022-12-25T10:03:52.647Z,6.70
2022-12-25T10:09:35.830Z,6.50
2022-12-25T10:12:24.115Z,6.07
2022-12-25T10:15:04.031Z,5.53
2022-12-25T10:17:39.690Z,6.77
2022-12-25T10:20:43.905Z,5.68
2022-12-25T10:23:22.741Z,5.80
2022-12-25T10:25:51.649Z,5.95
2022-12-25T10:28:41.038Z,9.02
2022-12-25T10:33:52.009Z,8.35
2022-12-25T10:36:22.766Z,7.90
2022-12-25T10:41:46.688Z,6.43
2022-12-25T10:44:16.086Z,5.00
2022-12-25T10:46:50.072Z,34.55
2022-12-25T10:49:20.996Z,10.70
2022-12-25T10:54:32.252Z,9.85
2022-12-25T10:56:59.186Z,7.53
2022-12-25T10:59:28.673Z,8.85
2022-12-25T11:02:01.526Z,7.32
2022-12-25T11:04:28.952Z,17.92
2022-12-25T11:07:14.001Z,13.15
2022-12-25T11:09:41.255Z,8.02
2022-12-25T11:12:18.683Z,5.65
2022-12-25T11:15:26.193Z,6.40
2022-12-25T11:17:53.305Z,5.78
2022-12-25T11:20:20.804Z,5.82
2022-12-25T11:22:49.349Z,7.38
2022-12-25T11:25:24.309Z,7.85
2022-12-25T11:28:02.793Z,6.60
2022-12-25T11:30:32.070Z,5.43
2022-12-25T11:33:11.338Z,5.60
2022-12-25T11:35:47.908Z,6.18
2022-12-25T11:38:14.907Z,4.75
2022-12-25T11:40:51.057Z,8.13
2022-12-25T11:43:24.717Z,9.00
2022-12-25T11:46:02.698Z,6.75
2022-12-25T11:48:36.939Z,7.53
2022-12-25T11:51:06.477Z,7.15
2022-12-25T11:53:44.393Z,7.43
2022-12-25T11:56:31.312Z,8.55
2022-12-25T11:59:13.633Z,18.83
2022-12-25T12:01:49.973Z,60.53
2022-12-25T12:04:50.265Z,27.30
2022-12-25T12:07:29.705Z,15.10
2022-12-25T12:10:05.407Z,10.30
2022-12-25T12:12:48.762Z,5.93
2022-12-25T12:15:25.951Z,7.20
2022-12-25T12:17:52.835Z,12.57
2022-12-25T12:20:34.678Z,8.77
2022-12-25T12:23:05.127Z,8.27
2022-12-25T12:25:32.342Z,7.05
2022-12-25T12:28:05.134Z,6.72
2022-12-25T12:30:35.696Z,7.38
2022-12-25T12:33:05.286Z,7.15
2022-12-25T12:35:40.074Z,7.47
2022-12-25T12:38:21.300Z,6.65
2022-12-25T12:40:55.794Z,6.60
2022-12-25T12:43:28.725Z,4.97
2022-12-25T12:46:00.551Z,4.78
2022-12-25T12:48:30.450Z,5.05
2022-12-25T12:51:06.155Z,6.35
2022-12-25T12:53:34.293Z,14.10
2022-12-25T12:56:14.148Z,8.10
2022-12-25T12:58:46.245Z,6.60
2022-12-25T13:01:30.411Z,8.48
2022-12-25T13:04:51.613Z,8.23
2022-12-25T13:07:18.520Z,8.57
2022-12-25T13:10:00.252Z,7.20
2022-12-25T13:12:27.481Z,7.10
2022-12-25T13:14:54.567Z,7.15
2022-12-25T13:17:24.840Z,5.95
2022-12-25T13:19:59.832Z,6.10
2022-12-25T13:22:35.944Z,8.52
2022-12-25T13:25:17.393Z,10.60
2022-12-25T13:27:44.308Z,9.00
2022-12-25T13:30:19.260Z,8.40
2022-12-25T13:32:46.776Z,7.90
2022-12-25T13:35:15.741Z,7.78
2022-12-25T13:37:43.857Z,7.65
2022-12-25T13:40:22.237Z,8.80
2022-12-25T13:42:50.234Z,7.05
2022-12-25T13:45:26.027Z,7.32
2022-12-25T13:47:55.481Z,8.23
2022-12-25T13:50:29.956Z,6.40
2022-12-25T13:52:58.870Z,7.18
2022-12-25T13:55:30.704Z,6.43
2022-12-25T13:58:00.276Z,6.97
2022-12-25T14:00:31.168Z,6.25
2022-12-25T14:02:59.207Z,6.45
2022-12-25T14:05:37.983Z,7.32
2022-12-25T14:08:24.557Z,7.40
2022-12-25T14:10:52.933Z,8.50
2022-12-25T14:13:23.499Z,7.25
2022-12-25T14:18:20.732Z,4.97
2022-12-25T14:20:58.970Z,5.25
2022-12-25T14:23:27.035Z,6.82
2022-12-25T14:25:53.947Z,19.73
2022-12-25T14:28:32.946Z,11.65
2022-12-25T14:31:04.132Z,8.32
2022-12-25T14:33:38.378Z,10.95
2022-12-25T14:36:06.986Z,10.43
2022-12-25T14:38:35.261Z,8.05
2022-12-25T14:41:16.928Z,7.25
2022-12-25T14:43:55.069Z,6.05
2022-12-25T14:46:27.565Z,6.07
2022-12-25T14:49:02.558Z,5.35
2022-12-25T14:51:31.278Z,4.88
2022-12-25T14:54:04.145Z,5.13
2022-12-25T14:56:39.334Z,5.30
2022-12-25T14:59:10.153Z,5.00
2022-12-25T15:04:14.973Z,5.10
2022-12-25T15:06:53.895Z,5.05
2022-12-25T15:09:21.664Z,4.80
2022-12-25T15:11:50.380Z,5.78
2022-12-25T15:14:17.801Z,4.95
2022-12-25T15:16:50.970Z,5.30
2022-12-25T15:19:27.251Z,5.07
2022-12-25T15:21:57.804Z,4.93
2022-12-25T15:24:24.863Z,6.25
2022-12-25T15:26:53.477Z,5.75
2022-12-25T15:29:38.123Z,5.82
2022-12-25T15:32:16.459Z,6.78
2022-12-25T15:34:46.205Z,7.15
2022-12-25T15:37:17.354Z,9.57
2022-12-25T15:39:57.411Z,10.38
2022-12-25T15:42:25.392Z,11.30
2022-12-25T15:44:52.341Z,8.60
2022-12-25T15:47:23.141Z,9.20
2022-12-25T15:49:50.135Z,9.75
2022-12-25T15:52:17.753Z,9.57
2022-12-25T15:54:44.643Z,8.27
2022-12-25T15:57:21.117Z,7.38
2022-12-25T15:59:48.321Z,7.07
2022-12-25T16:02:20.815Z,7.35
2022-12-25T16:04:49.075Z,13.13
2022-12-25T16:07:18.439Z,15.18
2022-12-25T16:09:46.177Z,15.10
2022-12-25T16:12:13.509Z,18.05
2022-12-25T16:14:40.495Z,21.25
2022-12-25T16:17:07.634Z,17.25
2022-12-25T16:19:37.386Z,15.50
2022-12-25T16:22:12.414Z,16.92
2022-12-25T16:24:39.425Z,14.68
2022-12-25T16:27:06.265Z,14.98
2022-12-25T16:29:33.286Z,12.88
2022-12-25T16:32:03.478Z,13.05
2022-12-25T16:34:31.000Z,11.63
2022-12-25T16:36:59.848Z,10.57
2022-12-25T16:39:39.593Z,11.32
2022-12-25T16:42:11.334Z,9.00
2022-12-25T16:44:41.127Z,12.75
2022-12-25T16:47:07.999Z,12.38
2022-12-25T16:49:35.374Z,13.20
2022-12-25T16:52:02.667Z,12.48
2022-12-25T16:54:29.680Z,14.45
2022-12-25T16:56:56.644Z,15.00
2022-12-25T16:59:23.496Z,16.65
2022-12-25T17:01:50.574Z,16.52
2022-12-25T17:04:17.656Z,15.68
2022-12-25T17:06:44.883Z,16.88
2022-12-25T17:09:11.736Z,19.35
2022-12-25T17:11:38.678Z,18.98
2022-12-25T17:14:06.879Z,16.38
2022-12-25T17:16:35.848Z,12.82
2022-12-25T17:19:05.469Z,14.70
2022-12-25T17:21:36.783Z,18.42
2022-12-25T17:24:04.707Z,18.85
2022-12-25T17:26:32.718Z,17.13
2022-12-25T17:29:00.128Z,23.55
2022-12-25T17:31:27.572Z,23.35
2022-12-25T17:33:54.656Z,25.00
2022-12-25T17:36:22.318Z,27.92
2022-12-25T17:38:49.872Z,35.17
2022-12-25T17:41:18.512Z,36.10
2022-12-25T17:43:46.117Z,35.75
2022-12-25T17:46:15.526Z,28.00
2022-12-25T17:48:43.395Z,25.25
2022-12-25T17:51:13.577Z,32.53
2022-12-25T17:53:43.454Z,26.40
2022-12-25T17:56:11.950Z,28.48
2022-12-25T17:58:39.872Z,28.30
2022-12-25T18:01:18.190Z,26.80
2022-12-25T18:03:46.293Z,27.42
2022-12-25T18:06:20.566Z,24.77
2022-12-25T18:08:49.513Z,24.30
2022-12-25T18:11:20.604Z,22.02
2022-12-25T18:13:50.152Z,16.92
2022-12-25T18:16:20.240Z,18.42
2022-12-25T18:18:51.754Z,17.00
2022-12-25T18:21:22.434Z,20.15
2022-12-25T18:23:50.188Z,16.08
2022-12-25T18:26:17.919Z,15.48
2022-12-25T18:28:44.980Z,18.60
2022-12-25T18:31:16.926Z,21.60
2022-12-25T18:33:44.748Z,24.25
2022-12-25T18:36:16.322Z,26.67
2022-12-25T18:38:43.432Z,28.77
2022-12-25T18:41:11.048Z,26.88
2022-12-25T18:43:52.186Z,27.83
2022-12-25T18:46:26.792Z,31.35
2022-12-25T18:48:56.055Z,27.75
2022-12-25T18:51:23.923Z,24.15
2022-12-25T18:53:51.411Z,18.65
2022-12-25T18:56:20.167Z,17.25
2022-12-25T18:58:48.633Z,20.58
2022-12-25T19:01:23.781Z,21.60
2022-12-25T19:03:51.943Z,23.40
2022-12-25T19:06:24.265Z,21.35
2022-12-25T19:08:51.505Z,14.30
2022-12-25T19:11:19.085Z,13.18
2022-12-25T19:13:46.883Z,19.42
2022-12-25T19:16:13.978Z,11.20
2022-12-25T19:18:41.016Z,12.55
2022-12-25T19:21:09.698Z,9.95
2022-12-25T19:23:38.061Z,13.55
2022-12-25T19:26:06.439Z,16.33
2022-12-25T19:28:33.467Z,11.55
2022-12-25T19:31:01.070Z,11.05
2022-12-25T19:33:30.436Z,11.90
2022-12-25T19:36:06.016Z,10.75
2022-12-25T19:38:33.416Z,13.63
2022-12-25T19:41:09.644Z,14.05
2022-12-25T19:43:39.469Z,14.80
2022-12-25T19:46:08.651Z,14.05
2022-12-25T19:48:36.299Z,14.52
2022-12-25T19:51:03.448Z,11.00
2022-12-25T19:53:30.694Z,14.50
2022-12-25T19:56:02.204Z,12.15
2022-12-25T19:58:30.143Z,11.45
2022-12-25T20:01:06.126Z,14.23
2022-12-25T20:03:37.566Z,13.73
2022-12-25T20:06:13.720Z,13.80
2022-12-25T20:08:41.252Z,16.48
2022-12-25T20:11:08.095Z,15.30
2022-12-25T20:13:35.167Z,13.25
2022-12-25T20:16:02.303Z,15.07
2022-12-25T20:18:29.691Z,18.33
2022-12-25T20:21:01.868Z,16.17
2022-12-25T20:23:29.259Z,17.73
2022-12-25T20:26:01.066Z,16.90
2022-12-25T20:28:28.789Z,14.18
2022-12-25T20:30:56.865Z,13.50
2022-12-25T20:33:24.482Z,12.85
2022-12-25T20:35:51.629Z,11.38
2022-12-25T20:38:18.931Z,11.68
2022-12-25T20:41:24.399Z,11.60
2022-12-25T20:43:33.291Z,10.52
2022-12-25T20:46:00.822Z,10.07
2022-12-25T20:48:28.436Z,9.10
2022-12-25T20:51:06.930Z,7.13
2022-12-25T20:53:34.038Z,7.03
2022-12-25T20:56:01.603Z,6.15
2022-12-25T20:58:28.917Z,7.53
2022-12-25T21:00:55.913Z,9.48
2022-12-25T21:03:23.097Z,14.90
2022-12-25T21:05:55.268Z,10.13
2022-12-25T21:08:24.833Z,15.85
2022-12-25T21:10:54.121Z,13.23
2022-12-25T21:13:28.421Z,13.45
2022-12-25T21:15:56.386Z,14.13
2022-12-25T21:18:25.099Z,14.35
2022-12-25T21:20:54.854Z,12.27
2022-12-25T21:23:22.492Z,13.93
2022-12-25T21:25:49.909Z,14.68
2022-12-25T21:28:17.285Z,13.70
2022-12-25T21:30:44.442Z,13.80
2022-12-25T21:33:33.423Z,14.48
2022-12-25T21:36:11.565Z,12.27
2022-12-25T21:38:39.375Z,9.60
2022-12-25T21:41:09.232Z,10.18
2022-12-25T21:43:38.194Z,9.65
2022-12-25T21:46:11.931Z,10.88
2022-12-25T21:48:41.600Z,10.45
2022-12-25T21:51:36.121Z,10.55
2022-12-25T21:54:05.360Z,10.20
2022-12-25T21:56:39.846Z,12.20
2022-12-25T21:59:27.540Z,10.40
2022-12-25T22:01:54.836Z,8.40
2022-12-25T22:04:23.867Z,8.57
2022-12-25T22:07:09.933Z,9.02
2022-12-25T22:09:37.618Z,9.38
2022-12-25T22:12:26.178Z,8.63
2022-12-25T22:15:03.185Z,10.20
2022-12-25T22:17:55.192Z,11.13
2022-12-25T22:20:37.223Z,11.48
2022-12-25T22:23:05.109Z,11.68
2022-12-25T22:25:32.357Z,10.68
2022-12-25T22:27:59.755Z,10.65
2022-12-25T22:30:29.241Z,13.60
2022-12-25T22:32:56.803Z,12.43
2022-12-25T22:35:24.531Z,15.55
2022-12-25T22:37:53.657Z,12.60
2022-12-25T22:40:21.205Z,12.45
2022-12-25T22:42:52.013Z,13.48
2022-12-25T22:47:50.594Z,13.25
2022-12-25T22:50:18.518Z,15.93
2022-12-25T22:52:48.946Z,14.82
2022-12-25T22:55:18.685Z,17.75
2022-12-25T22:57:45.960Z,19.58
2022-12-25T23:00:17.251Z,20.23
2022-12-25T23:02:46.188Z,18.52
2022-12-25T23:05:13.773Z,18.98
2022-12-25T23:07:41.996Z,17.38
2022-12-25T23:10:10.758Z,21.50
2022-12-25T23:12:56.978Z,23.63
2022-12-25T23:15:24.243Z,24.15
2022-12-25T23:18:11.966Z,20.02
2022-12-25T23:20:57.637Z,16.35
2022-12-25T23:23:44.188Z,13.85
2022-12-25T23:26:12.121Z,11.93
2022-12-25T23:29:02.204Z,11.13
2022-12-25T23:31:35.411Z,10.02
2022-12-25T23:34:03.879Z,10.95
2022-12-25T23:36:31.756Z,8.32
2022-12-25T23:39:04.757Z,9.02
2022-12-25T23:41:34.398Z,8.10
2022-12-25T23:44:01.277Z,7.18
2022-12-25T23:46:28.266Z,7.57
2022-12-25T23:48:55.220Z,6.45
2022-12-25T23:51:22.218Z,6.32
2022-12-25T23:53:49.136Z,6.38
2022-12-25T23:56:16.658Z,6.60
2022-12-25T23:58:49.586Z,5.88
